createdAt,value
2022-10-21T00:01:33.475Z,58.88
2022-10-21T00:04:02.122Z,59.09
2022-10-21T00:06:28.659Z,59.16
2022-10-21T00:08:55.250Z,58.88
2022-10-21T00:11:21.894Z,58.44
2022-10-21T00:13:48.450Z,58.61
2022-10-21T00:16:17.798Z,58.37
2022-10-21T00:18:47.078Z,58.64
2022-10-21T00:21:19.377Z,58.88
2022-10-21T00:23:46.568Z,58.49
2022-10-21T00:26:14.670Z,58.38
2022-10-21T00:28:42.047Z,58.37
2022-10-21T00:31:13.162Z,58.39
2022-10-21T00:33:39.882Z,58.15
2022-10-21T00:36:07.714Z,58.63
2022-10-21T00:38:35.535Z,58.38
2022-10-21T00:41:02.479Z,58.02
2022-10-21T00:43:29.962Z,57.95
2022-10-21T00:46:01.646Z,57.83
2022-10-21T00:48:33.884Z,57.83
2022-10-21T00:51:05.634Z,57.63
2022-10-21T00:53:34.930Z,57.32
2022-10-21T00:56:13.999Z,57.70
2022-10-21T00:58:45.825Z,58.13
2022-10-21T01:01:13.672Z,58.31
2022-10-21T01:03:42.887Z,58.64
2022-10-21T01:06:11.945Z,58.87
2022-10-21T01:08:39.304Z,59.12
2022-10-21T01:11:12.729Z,59.20
2022-10-21T01:14:16.888Z,59.31
2022-10-21T01:17:20.752Z,58.80
2022-10-21T01:19:56.201Z,58.82
2022-10-21T01:23:05.236Z,59.62
2022-10-21T01:25:43.744Z,59.49
2022-10-21T01:28:34.540Z,59.40
2022-10-21T01:31:05.472Z,59.60
2022-10-21T01:33:40.964Z,59.73
2022-10-21T01:36:35.933Z,59.78
2022-10-21T01:39:18.599Z,59.80
2022-10-21T01:42:15.050Z,59.26
2022-10-21T01:44:50.935Z,59.00
2022-10-21T01:47:22.382Z,58.94
2022-10-21T01:49:59.809Z,58.59
2022-10-21T01:52:27.022Z,58.62
2022-10-21T01:54:58.707Z,58.70
2022-10-21T01:57:31.230Z,58.61
2022-10-21T01:59:59.967Z,58.73
2022-10-21T02:02:30.749Z,58.69
2022-10-21T02:05:01.928Z,58.99
2022-10-21T02:07:28.865Z,58.57
2022-10-21T02:09:55.574Z,58.50
2022-10-21T02:12:25.919Z,58.31
2022-10-21T02:14:54.510Z,58.20
2022-10-21T02:17:22.311Z,57.90
2022-10-21T02:19:48.914Z,57.99
2022-10-21T02:22:22.217Z,58.09
2022-10-21T02:24:51.958Z,58.36
2022-10-21T02:27:19.305Z,58.00
2022-10-21T02:29:48.477Z,57.88
2022-10-21T02:32:26.885Z,57.93
2022-10-21T02:35:29.053Z,58.56
2022-10-21T02:38:04.045Z,58.04
2022-10-21T02:40:38.084Z,57.97
2022-10-21T02:43:30.485Z,57.52
2022-10-21T02:46:05.972Z,58.16
2022-10-21T02:48:34.098Z,57.78
2022-10-21T02:51:03.258Z,57.97
2022-10-21T02:53:29.761Z,57.65
2022-10-21T02:55:56.266Z,57.93
2022-10-21T02:58:22.889Z,57.85
2022-10-21T03:00:49.442Z,58.09
2022-10-21T03:03:16.050Z,58.28
2022-10-21T03:05:43.126Z,58.40
2022-10-21T03:08:09.967Z,58.20
2022-10-21T03:10:36.539Z,58.32
2022-10-21T03:13:03.199Z,58.23
2022-10-21T03:15:29.937Z,57.88
2022-10-21T03:17:56.493Z,58.59
2022-10-21T03:20:23.014Z,58.33
2022-10-21T03:22:49.670Z,58.56
2022-10-21T03:25:16.223Z,58.70
2022-10-21T03:27:42.763Z,58.41
2022-10-21T03:30:09.898Z,58.43
2022-10-21T03:32:36.716Z,58.00
2022-10-21T03:35:03.761Z,58.32
2022-10-21T03:37:30.360Z,58.37
2022-10-21T03:39:57.002Z,57.63
2022-10-21T03:42:23.584Z,57.52
2022-10-21T03:44:50.084Z,57.84
2022-10-21T03:47:16.619Z,57.79
2022-10-21T03:49:44.111Z,57.65
2022-10-21T03:52:10.654Z,57.40
2022-10-21T03:54:37.173Z,57.53
2022-10-21T03:57:03.708Z,57.22
2022-10-21T03:59:30.233Z,57.35
2022-10-21T04:01:56.816Z,57.28
2022-10-21T04:04:23.370Z,56.91
2022-10-21T04:06:50.025Z,57.14
2022-10-21T04:09:16.637Z,57.26
2022-10-21T04:11:43.256Z,57.16
2022-10-21T04:14:12.964Z,57.10
2022-10-21T04:16:41.899Z,56.90
2022-10-21T04:19:09.017Z,56.94
2022-10-21T04:21:35.737Z,56.53
2022-10-21T04:24:02.402Z,57.03
2022-10-21T04:26:28.911Z,57.04
2022-10-21T04:28:55.481Z,56.72
2022-10-21T04:31:21.987Z,56.81
2022-10-21T04:33:48.615Z,56.80
2022-10-21T04:36:15.101Z,56.73
2022-10-21T04:38:41.614Z,56.34
2022-10-21T04:41:08.144Z,56.41
2022-10-21T04:43:36.321Z,56.39
2022-10-21T04:46:02.972Z,56.21
2022-10-21T04:48:29.752Z,56.31
2022-10-21T04:50:56.345Z,56.20
2022-10-21T04:53:23.193Z,56.08
2022-10-21T04:55:53.730Z,55.70
2022-10-21T04:58:22.346Z,55.54
2022-10-21T05:00:50.728Z,55.79
2022-10-21T05:03:18.498Z,55.60
2022-10-21T05:05:45.390Z,55.72
2022-10-21T05:08:11.974Z,55.47
2022-10-21T05:10:38.550Z,55.60
2022-10-21T05:13:06.040Z,55.77
2022-10-21T05:15:33.737Z,55.42
2022-10-21T05:18:00.603Z,55.04
2022-10-21T05:20:27.162Z,55.26
2022-10-21T05:22:53.720Z,55.10
2022-10-21T05:25:20.712Z,55.32
2022-10-21T05:27:47.286Z,54.75
2022-10-21T05:30:14.487Z,54.82
2022-10-21T05:32:41.672Z,54.99
2022-10-21T05:35:08.565Z,54.80
2022-10-21T05:37:35.152Z,55.03
2022-10-21T05:40:02.178Z,55.22
2022-10-21T05:42:28.715Z,54.98
2022-10-21T05:44:55.250Z,54.83
2022-10-21T05:47:23.723Z,54.62
2022-10-21T05:49:50.665Z,54.55
2022-10-21T05:52:17.215Z,54.35
2022-10-21T05:54:43.748Z,54.42
2022-10-21T05:57:10.264Z,54.59
2022-10-21T05:59:36.763Z,54.16
2022-10-21T06:02:03.290Z,54.23
2022-10-21T06:04:29.861Z,54.57
2022-10-21T06:09:27.970Z,54.49
2022-10-21T06:11:54.462Z,54.60
2022-10-21T06:14:21.022Z,54.77
2022-10-21T06:16:47.541Z,54.77
2022-10-21T06:19:14.038Z,55.16
2022-10-21T06:21:40.572Z,55.49
2022-10-21T06:24:07.089Z,55.19
2022-10-21T06:26:36.153Z,55.17
2022-10-21T06:29:03.606Z,55.02
2022-10-21T06:31:30.138Z,55.17
2022-10-21T06:33:56.646Z,54.78
2022-10-21T06:36:23.181Z,54.40
2022-10-21T06:38:49.841Z,54.16
2022-10-21T06:41:17.981Z,53.84
2022-10-21T06:43:44.760Z,53.70
2022-10-21T06:46:14.361Z,53.91
2022-10-21T06:48:41.938Z,53.63
2022-10-21T06:51:13.274Z,53.67
2022-10-21T06:53:39.804Z,53.53
2022-10-21T06:56:09.510Z,53.43
2022-10-21T06:58:37.467Z,53.24
2022-10-21T07:01:21.587Z,52.97
2022-10-21T07:03:59.299Z,52.88
2022-10-21T07:06:25.980Z,53.20
2022-10-21T07:08:59.697Z,52.89
2022-10-21T07:11:27.305Z,52.80
2022-10-21T07:13:54.611Z,52.47
2022-10-21T07:16:21.155Z,52.45
2022-10-21T07:18:47.818Z,52.02
2022-10-21T07:21:17.474Z,52.04
2022-10-21T07:23:46.178Z,52.04
2022-10-21T07:26:13.137Z,52.04
2022-10-21T07:28:40.296Z,52.14
2022-10-21T07:31:06.798Z,52.03
2022-10-21T07:33:34.920Z,51.64
2022-10-21T07:36:11.035Z,51.53
2022-10-21T07:38:38.057Z,51.17
2022-10-21T07:41:04.995Z,51.42
2022-10-21T07:43:32.186Z,51.10
2022-10-21T07:46:01.811Z,50.91
2022-10-21T07:48:31.034Z,50.63
2022-10-21T07:51:06.609Z,50.13
2022-10-21T07:53:34.439Z,50.39
2022-10-21T07:56:06.233Z,49.80
2022-10-21T07:58:33.190Z,50.12
2022-10-21T08:01:02.269Z,49.90
2022-10-21T08:03:29.536Z,49.93
2022-10-21T08:05:56.480Z,49.60
2022-10-21T08:08:23.889Z,49.48
2022-10-21T08:10:52.480Z,49.31
2022-10-21T08:13:19.266Z,49.09
2022-10-21T08:15:48.181Z,49.25
2022-10-21T08:18:15.553Z,48.99
2022-10-21T08:20:43.890Z,48.60
2022-10-21T08:23:11.803Z,48.99
2022-10-21T08:25:38.389Z,48.73
2022-10-21T08:28:06.485Z,48.49
2022-10-21T08:30:33.266Z,48.48
2022-10-21T08:33:00.558Z,48.40
2022-10-21T08:35:27.695Z,47.59
2022-10-21T08:37:55.073Z,47.62
2022-10-21T08:40:21.740Z,47.28
2022-10-21T08:42:48.782Z,47.06
2022-10-21T08:45:29.453Z,46.92
2022-10-21T08:48:01.824Z,47.10
2022-10-21T08:50:35.607Z,46.80
2022-10-21T08:53:06.255Z,46.38
2022-10-21T08:55:40.860Z,46.81
2022-10-21T08:58:16.187Z,46.45
2022-10-21T09:00:46.152Z,46.24
2022-10-21T09:03:16.317Z,46.60
2022-10-21T09:06:04.271Z,46.67
2022-10-21T09:08:43.556Z,45.98
2022-10-21T09:11:12.782Z,46.13
2022-10-21T09:13:48.232Z,46.68
2022-10-21T09:16:51.810Z,46.71
2022-10-21T09:20:09.093Z,46.62
2022-10-21T09:23:07.499Z,46.22
2022-10-21T09:25:52.773Z,46.27
2022-10-21T09:28:19.322Z,46.14
2022-10-21T09:30:46.726Z,46.06
2022-10-21T09:33:26.791Z,45.92
2022-10-21T09:36:13.730Z,45.46
2022-10-21T09:38:55.378Z,46.13
2022-10-21T09:41:24.793Z,45.64
2022-10-21T09:43:51.337Z,46.14
2022-10-21T09:46:18.870Z,46.30
2022-10-21T09:49:23.248Z,46.78
2022-10-21T09:51:40.254Z,47.03
2022-10-21T09:54:11.813Z,47.01
2022-10-21T09:56:46.490Z,47.21
2022-10-21T09:59:16.395Z,47.30
2022-10-21T10:01:43.768Z,49.93
2022-10-21T10:04:22.121Z,49.68
2022-10-21T10:06:49.081Z,49.82
2022-10-21T10:09:31.683Z,50.78
2022-10-21T10:12:03.873Z,50.14
2022-10-21T10:14:36.517Z,50.81
2022-10-21T10:17:21.332Z,50.96
2022-10-21T10:20:14.685Z,51.20
2022-10-21T10:22:43.540Z,50.32
2022-10-21T10:25:21.418Z,49.98
2022-10-21T10:27:57.505Z,50.00
2022-10-21T10:30:26.893Z,50.33
2022-10-21T10:32:56.206Z,50.49
2022-10-21T10:35:30.805Z,50.44
2022-10-21T10:37:59.754Z,50.57
2022-10-21T10:40:34.162Z,50.75
2022-10-21T10:43:13.866Z,50.98
2022-10-21T10:45:51.471Z,50.80
2022-10-21T10:48:43.514Z,50.58
2022-10-21T10:51:30.309Z,50.74
2022-10-21T10:54:15.390Z,50.96
2022-10-21T10:56:59.337Z,50.67
2022-10-21T10:59:32.612Z,50.67
2022-10-21T11:02:12.168Z,50.58
2022-10-21T11:04:42.107Z,50.28
2022-10-21T11:07:24.514Z,50.20
2022-10-21T11:09:54.318Z,50.76
2022-10-21T11:12:26.461Z,51.07
2022-10-21T11:14:58.649Z,50.66
2022-10-21T11:17:41.485Z,51.45
2022-10-21T11:20:40.377Z,50.92
2022-10-21T11:23:35.628Z,51.05
2022-10-21T11:26:24.644Z,50.93
2022-10-21T11:29:14.344Z,50.64
2022-10-21T11:32:11.288Z,50.87
2022-10-21T11:34:38.661Z,50.70
2022-10-21T11:37:33.253Z,50.56
2022-10-21T11:40:41.422Z,50.84
2022-10-21T11:43:32.570Z,51.05
2022-10-21T11:46:34.369Z,51.19
2022-10-21T11:49:15.846Z,51.47
2022-10-21T11:52:03.794Z,51.08
2022-10-21T11:54:58.996Z,50.14
2022-10-21T11:57:53.061Z,50.19
2022-10-21T12:00:23.129Z,49.78
2022-10-21T12:03:13.457Z,49.73
2022-10-21T12:05:48.654Z,49.14
2022-10-21T12:08:23.496Z,49.42
2022-10-21T12:11:06.220Z,49.09
2022-10-21T12:13:39.868Z,48.55
2022-10-21T12:16:08.611Z,48.42
2022-10-21T12:18:43.102Z,47.80
2022-10-21T12:21:19.882Z,47.55
2022-10-21T12:23:50.420Z,47.76
2022-10-21T12:26:24.484Z,47.86
2022-10-21T12:29:02.622Z,46.82
2022-10-21T12:31:46.958Z,46.19
2022-10-21T12:34:14.238Z,45.83
2022-10-21T12:36:48.607Z,45.99
2022-10-21T12:39:49.382Z,46.03
2022-10-21T12:42:19.663Z,45.88
2022-10-21T12:44:48.749Z,44.95
2022-10-21T12:47:30.900Z,45.03
2022-10-21T12:50:29.866Z,45.34
2022-10-21T12:53:20.340Z,44.93
2022-10-21T12:55:58.749Z,45.40
2022-10-21T12:58:44.672Z,45.18
2022-10-21T13:01:39.842Z,44.27
2022-10-21T13:04:32.050Z,44.10
2022-10-21T13:07:02.967Z,43.98
2022-10-21T13:09:50.893Z,44.55
2022-10-21T13:12:23.415Z,44.09
2022-10-21T13:14:59.004Z,44.30
2022-10-21T13:17:33.042Z,44.90
2022-10-21T13:20:14.849Z,44.28
2022-10-21T13:22:47.152Z,44.65
2022-10-21T13:25:16.837Z,44.83
2022-10-21T13:27:48.549Z,44.25
2022-10-21T13:30:28.787Z,44.87
2022-10-21T13:33:22.303Z,44.99
2022-10-21T13:35:53.476Z,44.40
2022-10-21T13:38:24.431Z,44.72
2022-10-21T13:41:02.364Z,44.84
2022-10-21T13:43:53.214Z,45.67
2022-10-21T13:46:27.049Z,46.09
2022-10-21T13:48:53.912Z,46.67
2022-10-21T13:51:26.638Z,48.65
2022-10-21T13:53:55.978Z,48.88
2022-10-21T13:56:36.890Z,48.28
2022-10-21T13:59:05.444Z,50.54
2022-10-21T14:01:51.127Z,51.33
2022-10-21T14:04:29.657Z,51.96
2022-10-21T14:07:08.872Z,52.47
2022-10-21T14:09:42.230Z,53.56
2022-10-21T14:12:32.307Z,52.53
2022-10-21T14:15:12.490Z,54.24
2022-10-21T14:17:43.889Z,52.82
2022-10-21T14:20:15.934Z,53.14
2022-10-21T14:22:48.812Z,52.94
2022-10-21T14:25:16.609Z,52.98
2022-10-21T14:27:46.989Z,52.57
2022-10-21T14:30:25.616Z,52.89
2022-10-21T14:32:53.201Z,52.48
2022-10-21T14:35:19.797Z,53.10
2022-10-21T14:37:58.513Z,52.72
2022-10-21T14:40:40.768Z,53.36
2022-10-21T14:43:13.684Z,52.83
2022-10-21T14:45:52.111Z,52.62
2022-10-21T14:48:27.637Z,52.88
2022-10-21T14:51:01.557Z,52.63
2022-10-21T14:53:33.269Z,52.98
2022-10-21T14:56:02.821Z,53.26
2022-10-21T14:58:34.591Z,53.42
2022-10-21T15:01:13.252Z,53.47
2022-10-21T15:03:45.724Z,53.45
2022-10-21T15:06:18.165Z,53.31
2022-10-21T15:08:57.199Z,53.81
2022-10-21T15:11:39.765Z,53.66
2022-10-21T15:14:12.398Z,53.73
2022-10-21T15:16:47.002Z,53.63
2022-10-21T15:19:44.978Z,53.74
2022-10-21T15:22:27.789Z,53.64
2022-10-21T15:24:59.861Z,53.44
2022-10-21T15:27:35.116Z,53.84
2022-10-21T15:30:18.348Z,53.39
2022-10-21T15:32:45.597Z,53.85
2022-10-21T15:38:13.134Z,54.34
2022-10-21T15:40:39.657Z,54.36
2022-10-21T15:43:06.209Z,54.38
2022-10-21T15:45:33.300Z,54.52
2022-10-21T15:47:59.830Z,54.62
2022-10-21T15:50:27.196Z,54.77
2022-10-21T15:55:26.233Z,54.28
2022-10-21T15:57:52.922Z,54.78
2022-10-21T16:00:22.376Z,53.98
2022-10-21T16:02:51.784Z,54.16
2022-10-21T16:05:21.203Z,54.29
2022-10-21T16:07:47.750Z,54.46
2022-10-21T16:10:21.591Z,54.76
2022-10-21T16:12:48.107Z,54.30
2022-10-21T16:15:15.734Z,54.50
2022-10-21T16:17:48.047Z,54.27
2022-10-21T16:20:18.348Z,54.24
2022-10-21T16:22:45.080Z,54.40
2022-10-21T16:25:13.937Z,54.33
2022-10-21T16:27:55.625Z,54.44
2022-10-21T16:30:25.735Z,54.24
2022-10-21T16:32:52.595Z,54.01
2022-10-21T16:35:20.282Z,54.35
2022-10-21T16:37:48.059Z,54.44
2022-10-21T16:40:31.680Z,54.49
2022-10-21T16:42:58.462Z,54.64
2022-10-21T16:45:29.552Z,54.58
2022-10-21T16:47:59.512Z,54.67
2022-10-21T16:50:37.118Z,54.76
2022-10-21T16:53:04.461Z,55.25
2022-10-21T16:55:31.023Z,55.13
2022-10-21T16:57:57.589Z,54.84
2022-10-21T17:00:24.267Z,54.95
2022-10-21T17:02:51.465Z,55.32
2022-10-21T17:05:18.602Z,55.80
2022-10-21T17:07:45.302Z,56.36
2022-10-21T17:10:12.051Z,56.37
2022-10-21T17:12:38.838Z,56.87
2022-10-21T17:15:05.926Z,57.21
2022-10-21T17:17:32.489Z,57.81
2022-10-21T17:19:59.880Z,57.63
2022-10-21T17:22:26.454Z,57.58
2022-10-21T17:24:52.981Z,57.84
2022-10-21T17:27:19.918Z,57.90
2022-10-21T17:29:46.628Z,57.33
2022-10-21T17:32:13.569Z,57.63
2022-10-21T17:34:40.417Z,57.49
2022-10-21T17:37:11.104Z,57.63
2022-10-21T17:39:38.228Z,57.72
2022-10-21T17:42:04.763Z,57.42
2022-10-21T17:44:31.455Z,57.17
2022-10-21T17:46:58.072Z,56.79
2022-10-21T17:49:26.208Z,57.11
2022-10-21T17:51:52.885Z,57.23
2022-10-21T17:54:22.794Z,57.30
2022-10-21T17:56:52.805Z,57.90
2022-10-21T17:59:19.344Z,58.06
2022-10-21T18:01:46.193Z,58.05
2022-10-21T18:04:13.425Z,57.87
2022-10-21T18:06:40.179Z,57.74
2022-10-21T18:09:08.427Z,57.76
2022-10-21T18:11:35.964Z,58.50
2022-10-21T18:14:03.177Z,58.64
2022-10-21T18:16:29.867Z,57.85
2022-10-21T18:19:00.122Z,57.48
2022-10-21T18:21:29.401Z,57.80
2022-10-21T18:23:56.468Z,57.07
2022-10-21T18:26:28.977Z,58.03
2022-10-21T18:29:00.629Z,57.94
2022-10-21T18:31:29.888Z,57.61
2022-10-21T18:33:58.207Z,57.71
